Time;durP1;ratioP1;P1;durP2;ratioP2;P2;SDS_P1;SDS_P2;PMS_P1;PMS_P2;Temp;Humidity;BMP_temperature;BMP_pressure;BME280_temperature;BME280_humidity;BME280_pressure;Samples;Min_cycle;Max_cycle;Signal;HPM_P1;HPM_P2
2022/05/15 00:02:03;;;;;;;;;;;;;;;;;;5074773;28;20324;-69
2022/05/15 00:04:29;;;;;;;;;;;;;;;;;;5075299;28;19917;-69
2022/05/15 00:06:55;;;;;;;;;;;;;;;;;;5058642;28;20298;-69
2022/05/15 00:09:21;;;;;;;;;;;;;;;;;;5077227;28;20021;-69
2022/05/15 00:11:47;;;;;;;;;;;;;;;;;;5078270;28;19916;-69
2022/05/15 00:14:13;;;;;;;;;;;;;;;;;;5077047;28;19939;-69
2022/05/15 00:16:39;;;;;;;;;;;;;;;;;;5076013;28;19917;-69
2022/05/15 00:19:05;;;;;;;;;;;;;;;;;;5075174;28;19916;-69
2022/05/15 00:21:31;;;;;;;;;;;;;;;;;;5077033;28;20003;-69
2022/05/15 00:23:57;;;;;;;;;;;;;;;;;;5075154;28;19928;-69
2022/05/15 00:26:23;;;;;;;;;;;;;;;;;;5062473;28;19924;-69
2022/05/15 00:28:49;;;;;;;;;;;;;;;;;;5054407;28;19917;-69
2022/05/15 00:31:16;;;;;;;;;;;;;;;;;;5055021;28;19928;-69
2022/05/15 00:33:41;;;;;;;;;;;;;;;;;;5036673;28;19920;-69
2022/05/15 00:36:08;;;;;;;;;;;;;;;;;;5054197;28;19924;-69
2022/05/15 00:38:35;;;;;;;;;;;;;;;;;;5054596;28;19928;-69
2022/05/15 00:41:01;;;;;;;;;;;;;;;;;;5054214;28;20011;-69
2022/05/15 00:43:27;;;;;;;;;;;;;;;;;;5054619;28;19964;-69
2022/05/15 00:45:53;;;;;;;;;;;;;;;;;;5054427;28;19986;-69
2022/05/15 00:48:19;;;;;;;;;;;;;;;;;;5053864;28;19978;-69
2022/05/15 00:50:45;;;;;;;;;;;;;;;;;;5052945;28;19995;-69
2022/05/15 00:53:12;;;;;;;;;;;;;;;;;;5036697;28;19921;-69
2022/05/15 00:55:38;;;;;;;;;;;;;;;;;;5052677;28;19916;-69
2022/05/15 00:58:04;;;;;;;;;;;;;;;;;;5054556;28;19923;-69
2022/05/15 01:00:31;;;;;;;;;;;;;;;;;;5037491;28;19916;-69
2022/05/15 01:02:57;;;;;;;;;;;;;;;;;;5054966;28;19925;-69
2022/05/15 01:05:24;;;;;;;;;;;;;;;;;;5055223;28;19940;-69
2022/05/15 01:07:50;;;;;;;;;;;;;;;;;;5053628;28;19916;-69
2022/05/15 01:10:15;;;;;;;;;;;;;;;;;;5053877;28;19940;-69
2022/05/15 01:12:42;;;;;;;;;;;;;;;;;;5053876;28;19928;-69
2022/05/15 01:15:08;;;;;;;;;;;;;;;;;;5055941;28;19960;-69
2022/05/15 01:17:33;;;;;;;;;;;;;;;;;;5054188;28;19931;-69
2022/05/15 01:19:59;;;;;;;;;;;;;;;;;;5053584;28;19916;-69
2022/05/15 01:22:25;;;;;;;;;;;;;;;;;;5053447;28;19917;-69
2022/05/15 01:24:51;;;;;;;;;;;;;;;;;;5055293;28;20421;-69
2022/05/15 01:27:17;;;;;;;;;;;;;;;;;;5057914;28;19924;-69
2022/05/15 01:29:44;;;;;;;;;;;;;;;;;;5058150;28;19922;-69
2022/05/15 01:32:10;;;;;;;;;;;;;;;;;;5060475;28;19923;-69
2022/05/15 01:34:36;;;;;;;;;;;;;;;;;;5080161;28;19921;-69
2022/05/15 01:37:02;;;;;;;;;;;;;;;;;;5080138;28;19920;-69
2022/05/15 01:39:28;;;;;;;;;;;;;;;;;;5079909;28;19920;-69
2022/05/15 01:41:54;;;;;;;;;;;;;;;;;;5061568;28;20011;-69
2022/05/15 01:44:22;;;;;;;;;;;;;;;;;;5061021;28;19920;-69
2022/05/15 01:46:50;;;;;;;;;;;;;;;;;;5078170;28;19956;-69
2022/05/15 01:49:16;;;;;;;;;;;;;;;;;;5060711;28;19927;-69
2022/05/15 01:51:42;;;;;;;;;;;;;;;;;;5059797;28;19917;-69
2022/05/15 01:54:09;;;;;;;;;;;;;;;;;;5076893;28;19920;-69
2022/05/15 01:56:36;;;;;;;;;;;;;;;;;;5060362;28;19923;-69
2022/05/15 01:59:03;;;;;;;;;;;;;;;;;;5078577;28;19920;-69
2022/05/15 02:01:29;;;;;;;;;;;;;;;;;;5078221;28;19934;-69
2022/05/15 02:03:56;;;;;;;;;;;;;;;;;;5060915;28;20027;-69
2022/05/15 02:06:21;;;;;;;;;;;;;;;;;;5078372;28;19920;-69
2022/05/15 02:08:48;;;;;;;;;;;;;;;;;;5043330;28;19978;-69
2022/05/15 02:11:14;;;;;;;;;;;;;;;;;;5060452;28;19916;-69
2022/05/15 02:13:39;;;;;;;;;;;;;;;;;;5078667;28;19920;-69
2022/05/15 02:16:05;;;;;;;;;;;;;;;;;;5076907;28;19917;-69
2022/05/15 02:18:31;;;;;;;;;;;;;;;;;;5077049;28;20010;-69
2022/05/15 02:20:58;;;;;;;;;;;;;;;;;;5076679;28;19984;-69
2022/05/15 02:23:26;;;;;;;;;;;;;;;;;;5077315;28;20073;-69
2022/05/15 02:25:52;;;;;;;;;;;;;;;;;;5053263;28;19927;-69
2022/05/15 02:28:19;;;;;;;;;;;;;;;;;;5057944;28;19944;-69
2022/05/15 02:30:45;;;;;;;;;;;;;;;;;;5056257;28;19920;-69
2022/05/15 02:33:12;;;;;;;;;;;;;;;;;;5058292;28;20015;-69
2022/05/15 02:35:38;;;;;;;;;;;;;;;;;;5057721;28;20351;-69
2022/05/15 02:38:04;;;;;;;;;;;;;;;;;;5055852;28;19938;-69
2022/05/15 02:40:30;;;;;;;;;;;;;;;;;;5058412;28;19927;-69
2022/05/15 02:42:56;;;;;;;;;;;;;;;;;;5056752;28;19987;-69
2022/05/15 02:45:22;;;;;;;;;;;;;;;;;;5058300;28;19939;-69
2022/05/15 02:47:48;;;;;;;;;;;;;;;;;;5058544;28;19965;-69
2022/05/15 02:53:00;;;;;;;;;;;;;;;;;;5039166;28;20325;-69
2022/05/15 02:55:26;;;;;;;;;;;;;;;;;;5057752;28;19986;-69
2022/05/15 02:57:52;;;;;;;;;;;;;;;;;;5057345;28;20375;-69
2022/05/15 03:00:17;;;;;;;;;;;;;;;;;;5057360;28;20062;-69
2022/05/15 03:02:43;;;;;;;;;;;;;;;;;;5056113;28;19928;-69
2022/05/15 03:05:09;;;;;;;;;;;;;;;;;;5056045;28;19923;-69
2022/05/15 03:07:35;;;;;;;;;;;;;;;;;;5056163;28;19917;-69
2022/05/15 03:10:01;;;;;;;;;;;;;;;;;;5055923;28;19921;-69
2022/05/15 03:12:27;;;;;;;;;;;;;;;;;;5058126;28;19939;-69
2022/05/15 03:14:53;;;;;;;;;;;;;;;;;;5055479;28;19924;-69
2022/05/15 03:17:19;;;;;;;;;;;;;;;;;;5057079;28;19917;-69
2022/05/15 03:19:45;;;;;;;;;;;;;;;;;;5057492;28;19922;-69
2022/05/15 03:22:11;;;;;;;;;;;;;;;;;;5039058;28;19924;-69
2022/05/15 03:24:37;;;;;;;;;;;;;;;;;;5055603;28;19921;-69
2022/05/15 03:27:03;;;;;;;;;;;;;;;;;;5057357;28;19916;-69
2022/05/15 03:29:29;;;;;;;;;;;;;;;;;;5057260;28;19917;-69
2022/05/15 03:31:55;;;;;;;;;;;;;;;;;;5055997;28;19921;-69
2022/05/15 03:34:21;;;;;;;;;;;;;;;;;;5039768;28;19921;-69
2022/05/15 03:36:47;;;;;;;;;;;;;;;;;;5039599;28;19944;-69
2022/05/15 03:39:13;;;;;;;;;;;;;;;;;;5038636;28;19916;-69
2022/05/15 03:41:39;;;;;;;;;;;;;;;;;;5057390;28;20022;-69
2022/05/15 03:44:05;;;;;;;;;;;;;;;;;;5055822;28;19964;-69
2022/05/15 03:46:31;;;;;;;;;;;;;;;;;;5055173;28;19920;-69
2022/05/15 03:48:58;;;;;;;;;;;;;;;;;;5055172;28;20378;-69
2022/05/15 03:51:24;;;;;;;;;;;;;;;;;;5055510;28;20291;-69
2022/05/15 03:53:50;;;;;;;;;;;;;;;;;;5056219;28;19987;-69
2022/05/15 03:56:16;;;;;;;;;;;;;;;;;;5056773;28;19921;-69
2022/05/15 03:58:42;;;;;;;;;;;;;;;;;;5056247;28;19916;-69
2022/05/15 04:01:08;;;;;;;;;;;;;;;;;;5056506;28;20009;-69
2022/05/15 04:03:34;;;;;;;;;;;;;;;;;;5056506;28;19946;-69
2022/05/15 04:06:00;;;;;;;;;;;;;;;;;;5056332;28;19927;-69
2022/05/15 04:08:27;;;;;;;;;;;;;;;;;;5056215;28;19921;-69
2022/05/15 04:10:53;;;;;;;;;;;;;;;;;;5055377;28;20017;-69
2022/05/15 04:13:19;;;;;;;;;;;;;;;;;;5038866;28;19916;-69
2022/05/15 04:15:45;;;;;;;;;;;;;;;;;;5037632;28;19925;-69
2022/05/15 04:18:11;;;;;;;;;;;;;;;;;;5037984;28;19928;-69
2022/05/15 04:20:37;;;;;;;;;;;;;;;;;;5056357;28;19920;-69
2022/05/15 04:23:03;;;;;;;;;;;;;;;;;;5054901;28;19932;-69
2022/05/15 04:25:29;;;;;;;;;;;;;;;;;;5060253;28;19922;-69
2022/05/15 04:27:55;;;;;;;;;;;;;;;;;;5076667;28;19916;-69
2022/05/15 04:30:21;;;;;;;;;;;;;;;;;;5076672;28;19920;-69
2022/05/15 04:32:47;;;;;;;;;;;;;;;;;;5076407;28;19943;-69
2022/05/15 04:35:13;;;;;;;;;;;;;;;;;;5058348;28;19916;-69
2022/05/15 04:37:39;;;;;;;;;;;;;;;;;;5057472;28;19962;-69
2022/05/15 04:40:05;;;;;;;;;;;;;;;;;;5076322;28;19969;-69
2022/05/15 04:42:31;;;;;;;;;;;;;;;;;;5041855;28;20019;-69
2022/05/15 04:44:57;;;;;;;;;;;;;;;;;;5075362;28;19928;-69
2022/05/15 04:47:23;;;;;;;;;;;;;;;;;;5057879;28;19965;-69
2022/05/15 04:49:51;;;;;;;;;;;;;;;;;;5058018;28;19916;-69
2022/05/15 04:52:16;;;;;;;;;;;;;;;;;;5058020;28;20015;-69
2022/05/15 04:54:42;;;;;;;;;;;;;;;;;;5058362;28;20370;-69
2022/05/15 04:57:08;;;;;;;;;;;;;;;;;;5077598;28;19916;-69
2022/05/15 04:59:34;;;;;;;;;;;;;;;;;;5057541;28;19946;-69
2022/05/15 05:02:00;;;;;;;;;;;;;;;;;;5076790;28;19916;-69
2022/05/15 05:04:26;;;;;;;;;;;;;;;;;;5076915;28;19970;-69
2022/05/15 05:06:52;;;;;;;;;;;;;;;;;;5061445;28;19920;-69
2022/05/15 05:09:18;;;;;;;;;;;;;;;;;;5062533;28;19920;-69
2022/05/15 05:11:45;;;;;;;;;;;;;;;;;;5062190;28;19923;-69
2022/05/15 05:14:11;;;;;;;;;;;;;;;;;;5061635;28;19927;-69
2022/05/15 05:16:37;;;;;;;;;;;;;;;;;;5061775;28;19916;-69
2022/05/15 05:19:03;;;;;;;;;;;;;;;;;;5079360;28;19916;-69
2022/05/15 05:21:29;;;;;;;;;;;;;;;;;;5078646;28;19924;-69
2022/05/15 05:23:55;;;;;;;;;;;;;;;;;;5057694;28;19921;-69
2022/05/15 05:26:21;;;;;;;;;;;;;;;;;;5048720;28;19928;-69
2022/05/15 05:28:48;;;;;;;;;;;;;;;;;;5037866;28;19924;-69
2022/05/15 05:31:14;;;;;;;;;;;;;;;;;;5038164;28;19917;-69
2022/05/15 05:33:40;;;;;;;;;;;;;;;;;;5039563;28;20359;-69
2022/05/15 05:36:06;;;;;;;;;;;;;;;;;;5037042;28;19924;-69
2022/05/15 05:38:32;;;;;;;;;;;;;;;;;;5037588;28;20292;-69
2022/05/15 05:40:58;;;;;;;;;;;;;;;;;;5038348;28;19917;-69
2022/05/15 05:43:24;;;;;;;;;;;;;;;;;;5037391;28;19947;-69
2022/05/15 05:45:50;;;;;;;;;;;;;;;;;;5037670;28;19921;-69
2022/05/15 05:48:16;;;;;;;;;;;;;;;;;;5039522;28;19917;-69
2022/05/15 05:50:42;;;;;;;;;;;;;;;;;;5038856;28;19921;-69
2022/05/15 05:53:09;;;;;;;;;;;;;;;;;;5037963;28;19976;-69
2022/05/15 05:55:36;;;;;;;;;;;;;;;;;;5037122;28;19924;-69
2022/05/15 05:58:02;;;;;;;;;;;;;;;;;;5038254;28;19921;-69
2022/05/15 06:00:28;;;;;;;;;;;;;;;;;;5020380;28;19924;-69
2022/05/15 06:04:39;;;;;;;;;;;;;;;;;;5038065;28;19924;-69
2022/05/15 06:05:40;;;;;;;;;;;;;;;;;;5036763;28;19964;-69
2022/05/15 06:08:06;;;;;;;;;;;;;;;;;;5035213;28;19960;-69
2022/05/15 06:10:32;;;;;;;;;;;;;;;;;;5035916;28;19987;-69
2022/05/15 06:12:58;;;;;;;;;;;;;;;;;;5035652;28;19982;-69
2022/05/15 06:15:24;;;;;;;;;;;;;;;;;;5037202;28;19921;-69
2022/05/15 06:17:50;;;;;;;;;;;;;;;;;;5034795;28;19940;-69
2022/05/15 06:20:16;;;;;;;;;;;;;;;;;;5036455;28;19978;-69
2022/05/15 06:22:42;;;;;;;;;;;;;;;;;;5039464;28;19990;-69
2022/05/15 06:25:08;;;;;;;;;;;;;;;;;;5056859;28;19931;-69
2022/05/15 06:27:34;;;;;;;;;;;;;;;;;;5058051;28;19920;-69
2022/05/15 06:30:00;;;;;;;;;;;;;;;;;;5076173;28;19922;-69
2022/05/15 06:32:26;;;;;;;;;;;;;;;;;;5076243;28;19939;-69
2022/05/15 06:34:52;;;;;;;;;;;;;;;;;;5075503;28;19927;-69
2022/05/15 06:37:19;;;;;;;;;;;;;;;;;;5058033;28;19916;-69
2022/05/15 06:39:45;;;;;;;;;;;;;;;;;;5058303;28;19942;-69
2022/05/15 06:42:11;;;;;;;;;;;;;;;;;;5058063;28;19916;-69
2022/05/15 06:44:36;;;;;;;;;;;;;;;;;;5076065;28;19924;-69
2022/05/15 06:47:02;;;;;;;;;;;;;;;;;;5041114;28;20016;-69
2022/05/15 06:49:28;;;;;;;;;;;;;;;;;;5074626;28;20006;-69
2022/05/15 06:51:54;;;;;;;;;;;;;;;;;;5074583;28;19938;-69
2022/05/15 06:54:20;;;;;;;;;;;;;;;;;;5074975;28;20355;-69
2022/05/15 06:59:32;;;;;;;;;;;;;;;;;;5074918;28;19927;-69
2022/05/15 07:01:58;;;;;;;;;;;;;;;;;;5074939;28;20259;-69
2022/05/15 07:04:24;;;;;;;;;;;;;;;;;;5055438;28;19930;-69
2022/05/15 07:06:51;;;;;;;;;;;;;;;;;;5074287;28;20011;-69
2022/05/15 07:09:17;;;;;;;;;;;;;;;;;;5074224;28;19920;-69
2022/05/15 07:11:44;;;;;;;;;;;;;;;;;;5074204;28;20015;-69
2022/05/15 07:14:09;;;;;;;;;;;;;;;;;;5056053;28;19921;-69
2022/05/15 07:16:36;;;;;;;;;;;;;;;;;;5074913;28;20308;-69
2022/05/15 07:19:01;;;;;;;;;;;;;;;;;;5073614;28;19920;-69
2022/05/15 07:21:27;;;;;;;;;;;;;;;;;;5073053;28;19916;-69
2022/05/15 07:23:53;;;;;;;;;;;;;;;;;;5051770;28;19943;-69
2022/05/15 07:26:19;;;;;;;;;;;;;;;;;;5040969;28;19917;-69
2022/05/15 07:28:50;;;;;;;;;;;;;;;;;;5031892;28;19995;-69
2022/05/15 07:31:18;;;;;;;;;;;;;;;;;;5031835;28;19920;-69
2022/05/15 07:33:44;;;;;;;;;;;;;;;;;;5032914;28;19917;-69
2022/05/15 07:36:10;;;;;;;;;;;;;;;;;;5031223;28;20012;-69
2022/05/15 07:38:36;;;;;;;;;;;;;;;;;;5033066;28;19951;-69
2022/05/15 07:41:02;;;;;;;;;;;;;;;;;;5033202;28;19920;-69
2022/05/15 07:43:28;;;;;;;;;;;;;;;;;;5030905;28;19991;-69
2022/05/15 07:45:54;;;;;;;;;;;;;;;;;;5031308;28;19917;-69
2022/05/15 07:48:20;;;;;;;;;;;;;;;;;;5031501;28;19944;-69
2022/05/15 07:50:46;;;;;;;;;;;;;;;;;;5030910;28;19939;-69
2022/05/15 07:53:12;;;;;;;;;;;;;;;;;;5031106;28;19987;-69
2022/05/15 07:55:38;;;;;;;;;;;;;;;;;;5032881;28;19920;-69
2022/05/15 07:58:04;;;;;;;;;;;;;;;;;;5031924;28;19924;-69
2022/05/15 08:00:30;;;;;;;;;;;;;;;;;;5032442;28;19924;-69
2022/05/15 08:02:56;;;;;;;;;;;;;;;;;;5032539;28;19916;-69
2022/05/15 08:08:09;;;;;;;;;;;;;;;;;;5030893;28;20314;-69
2022/05/15 08:10:35;;;;;;;;;;;;;;;;;;5032167;28;19917;-69
2022/05/15 08:13:01;;;;;;;;;;;;;;;;;;5031959;28;19928;-69
2022/05/15 08:15:27;;;;;;;;;;;;;;;;;;5032347;28;19921;-69
2022/05/15 08:17:53;;;;;;;;;;;;;;;;;;5031130;28;19966;-69
2022/05/15 08:25:48;;;;;;;;;;;;;;;;;;5037868;28;19931;-69
2022/05/15 08:28:14;;;;;;;;;;;;;;;;;;5051028;28;19917;-69
2022/05/15 08:30:40;;;;;;;;;;;;;;;;;;5052119;28;19996;-69
2022/05/15 08:33:06;;;;;;;;;;;;;;;;;;5050738;28;19959;-69
2022/05/15 08:35:32;;;;;;;;;;;;;;;;;;5051436;28;20468;-69
2022/05/15 08:37:58;;;;;;;;;;;;;;;;;;5051756;28;19981;-69
2022/05/15 08:40:24;;;;;;;;;;;;;;;;;;5054079;28;20011;-69
2022/05/15 08:42:54;;;;;;;;;;;;;;;;;;5056269;28;19924;-69
2022/05/15 08:45:20;;;;;;;;;;;;;;;;;;5055833;28;20438;-69
2022/05/15 08:47:46;;;;;;;;;;;;;;;;;;5056806;28;19980;-69
2022/05/15 08:50:12;;;;;;;;;;;;;;;;;;5057304;28;20290;-69
2022/05/15 08:52:38;;;;;;;;;;;;;;;;;;5058629;28;20038;-69
2022/05/15 08:55:04;;;;;;;;;;;;;;;;;;5057408;28;19962;-69
2022/05/15 08:57:30;;;;;;;;;;;;;;;;;;5058395;28;20004;-69
2022/05/15 08:59:56;;;;;;;;;;;;;;;;;;5059227;28;19917;-69
2022/05/15 09:02:23;;;;;;;;;;;;;;;;;;5057982;28;19917;-69
2022/05/15 09:04:49;;;;;;;;;;;;;;;;;;5055572;28;20421;-69
2022/05/15 09:07:15;;;;;;;;;;;;;;;;;;5057629;28;19928;-69
2022/05/15 09:09:41;;;;;;;;;;;;;;;;;;5056876;28;19917;-69
2022/05/15 09:12:07;;;;;;;;;;;;;;;;;;5056820;28;19920;-69
2022/05/15 09:14:33;;;;;;;;;;;;;;;;;;5059247;28;19917;-69
2022/05/15 09:16:59;;;;;;;;;;;;;;;;;;5056866;28;19916;-69
2022/05/15 09:19:25;;;;;;;;;;;;;;;;;;5056144;28;19920;-69
2022/05/15 09:21:51;;;;;;;;;;;;;;;;;;5057827;28;19955;-69
2022/05/15 09:24:16;;;;;;;;;;;;;;;;;;5056190;28;19986;-69
2022/05/15 09:26:42;;;;;;;;;;;;;;;;;;5042884;28;19916;-69
2022/05/15 09:29:12;;;;;;;;;;;;;;;;;;5037524;28;19917;-69
2022/05/15 09:31:42;;;;;;;;;;;;;;;;;;5038985;28;19924;-70
2022/05/15 09:34:07;;;;;;;;;;;;;;;;;;5037408;28;19928;-70
2022/05/15 09:36:33;;;;;;;;;;;;;;;;;;5038891;28;20364;-70
2022/05/15 09:38:59;;;;;;;;;;;;;;;;;;5038755;28;19984;-70
2022/05/15 09:44:10;;;;;;;;;;;;;;;;;;5039025;28;19921;-70
2022/05/15 09:46:36;;;;;;;;;;;;;;;;;;5037730;28;19962;-70
2022/05/15 09:49:03;;;;;;;;;;;;;;;;;;5037746;28;19920;-70
2022/05/15 09:51:29;;;;;;;;;;;;;;;;;;5036804;28;20415;-70
2022/05/15 09:53:56;;;;;;;;;;;;;;;;;;5037503;28;19917;-70
2022/05/15 09:56:21;;;;;;;;;;;;;;;;;;5038325;28;20455;-70
2022/05/15 09:58:48;;;;;;;;;;;;;;;;;;5038310;28;20051;-70
2022/05/15 10:01:14;;;;;;;;;;;;;;;;;;5036916;28;19955;-70
2022/05/15 10:03:40;;;;;;;;;;;;;;;;;;5036393;28;20021;-70
2022/05/15 10:06:06;;;;;;;;;;;;;;;;;;5036627;28;19916;-70
2022/05/15 10:08:33;;;;;;;;;;;;;;;;;;5038020;28;19939;-70
2022/05/15 10:10:59;;;;;;;;;;;;;;;;;;5019126;28;19917;-70
2022/05/15 10:13:25;;;;;;;;;;;;;;;;;;5038348;28;20186;-70
2022/05/15 10:15:51;;;;;;;;;;;;;;;;;;5036223;28;19921;-70
2022/05/15 10:18:17;;;;;;;;;;;;;;;;;;5037226;28;20374;-70
2022/05/15 10:20:43;;;;;;;;;;;;;;;;;;5036036;28;19987;-70
2022/05/15 10:23:09;;;;;;;;;;;;;;;;;;5018842;28;20380;-70
2022/05/15 10:25:35;;;;;;;;;;;;;;;;;;5039851;28;19922;-70
2022/05/15 10:28:01;;;;;;;;;;;;;;;;;;5055518;28;19921;-70
2022/05/15 10:30:28;;;;;;;;;;;;;;;;;;5056662;28;19929;-70
2022/05/15 10:32:54;;;;;;;;;;;;;;;;;;5055136;28;20005;-70
2022/05/15 10:35:20;;;;;;;;;;;;;;;;;;5038566;28;19916;-70
2022/05/15 10:37:46;;;;;;;;;;;;;;;;;;5054353;28;20271;-70
2022/05/15 10:40:12;;;;;;;;;;;;;;;;;;5053729;28;19916;-70
2022/05/15 10:42:39;;;;;;;;;;;;;;;;;;5055732;28;19916;-70
2022/05/15 10:45:05;;;;;;;;;;;;;;;;;;5055022;28;20637;-70
2022/05/15 10:47:31;;;;;;;;;;;;;;;;;;5053897;28;19928;-70
2022/05/15 10:49:57;;;;;;;;;;;;;;;;;;5054702;28;19921;-70
2022/05/15 10:52:23;;;;;;;;;;;;;;;;;;5054794;28;19917;-70
2022/05/15 10:57:34;;;;;;;;;;;;;;;;;;5054181;28;20311;-70
2022/05/15 11:00:00;;;;;;;;;;;;;;;;;;5054042;28;19971;-70
2022/05/15 11:02:26;;;;;;;;;;;;;;;;;;5050961;28;19979;-70
2022/05/15 11:04:52;;;;;;;;;;;;;;;;;;5035719;28;19927;-70
2022/05/15 11:07:21;;;;;;;;;;;;;;;;;;5052124;28;19947;-70
2022/05/15 11:09:47;;;;;;;;;;;;;;;;;;5053120;28;20315;-70
2022/05/15 11:12:13;;;;;;;;;;;;;;;;;;5051982;28;19967;-70
2022/05/15 11:14:39;;;;;;;;;;;;;;;;;;5052298;28;19964;-70
2022/05/15 11:17:05;;;;;;;;;;;;;;;;;;5052988;28;19960;-70
2022/05/15 11:19:31;;;;;;;;;;;;;;;;;;5052126;28;19963;-70
2022/05/15 11:21:57;;;;;;;;;;;;;;;;;;5053859;28;19921;-70
2022/05/15 11:24:23;;;;;;;;;;;;;;;;;;5051331;28;19987;-70
2022/05/15 11:26:49;;;;;;;;;;;;;;;;;;5039382;28;19917;-70
2022/05/15 11:29:15;;;;;;;;;;;;;;;;;;5032009;28;19924;-70
2022/05/15 11:31:41;;;;;;;;;;;;;;;;;;5015308;28;19939;-70
2022/05/15 11:34:07;;;;;;;;;;;;;;;;;;5015738;28;19920;-70
2022/05/15 11:36:35;;;;;;;;;;;;;;;;;;5033930;28;19948;-70
2022/05/15 11:39:01;;;;;;;;;;;;;;;;;;5034397;28;20035;-70
2022/05/15 11:41:27;;;;;;;;;;;;;;;;;;5016294;28;20512;-70
2022/05/15 11:43:53;;;;;;;;;;;;;;;;;;5032818;28;19943;-70
2022/05/15 11:46:19;;;;;;;;;;;;;;;;;;5015737;28;19921;-70
2022/05/15 11:48:44;;;;;;;;;;;;;;;;;;5033291;28;19982;-70
2022/05/15 11:51:10;;;;;;;;;;;;;;;;;;5017062;28;19924;-71
2022/05/15 11:53:37;;;;;;;;;;;;;;;;;;5016674;28;19950;-71
2022/05/15 11:56:03;;;;;;;;;;;;;;;;;;5035748;28;20376;-71
2022/05/15 11:58:31;;;;;;;;;;;;;;;;;;5035597;28;20299;-71
2022/05/15 12:00:57;;;;;;;;;;;;;;;;;;5035240;28;19921;-71
2022/05/15 12:03:23;;;;;;;;;;;;;;;;;;5035705;28;19952;-71
2022/05/15 12:05:49;;;;;;;;;;;;;;;;;;5035840;28;19943;-71
2022/05/15 12:08:15;;;;;;;;;;;;;;;;;;5034773;28;19921;-71
2022/05/15 12:10:41;;;;;;;;;;;;;;;;;;5035897;28;19921;-71
2022/05/15 12:13:07;;;;;;;;;;;;;;;;;;5035251;28;19921;-71
2022/05/15 12:15:34;;;;;;;;;;;;;;;;;;5036407;28;19923;-71
2022/05/15 12:18:00;;;;;;;;;;;;;;;;;;5037114;28;19921;-71
2022/05/15 12:20:26;;;;;;;;;;;;;;;;;;5033990;28;19924;-71
2022/05/15 12:22:52;;;;;;;;;;;;;;;;;;5039319;28;19928;-71
2022/05/15 12:25:18;;;;;;;;;;;;;;;;;;5055804;28;19920;-71
2022/05/15 12:27:45;;;;;;;;;;;;;;;;;;5056919;28;19966;-71
2022/05/15 12:30:11;;;;;;;;;;;;;;;;;;5056075;28;19920;-71
2022/05/15 12:32:36;;;;;;;;;;;;;;;;;;5055532;28;19916;-71
2022/05/15 12:35:02;;;;;;;;;;;;;;;;;;5055516;28;19962;-71
2022/05/15 12:37:29;;;;;;;;;;;;;;;;;;5054683;28;19922;-71
2022/05/15 12:39:55;;;;;;;;;;;;;;;;;;5073844;28;19924;-71
2022/05/15 12:42:21;;;;;;;;;;;;;;;;;;5055038;28;19920;-71
2022/05/15 12:44:47;;;;;;;;;;;;;;;;;;5053936;28;19947;-71
2022/05/15 12:47:14;;;;;;;;;;;;;;;;;;5037679;28;19916;-71
2022/05/15 12:49:40;;;;;;;;;;;;;;;;;;5072636;28;19930;-71
2022/05/15 12:52:05;;;;;;;;;;;;;;;;;;5072576;28;19923;-71
2022/05/15 12:54:31;;;;;;;;;;;;;;;;;;5072079;28;19970;-71
2022/05/15 12:56:58;;;;;;;;;;;;;;;;;;5055261;28;19943;-71
2022/05/15 12:59:24;;;;;;;;;;;;;;;;;;5055022;28;19942;-71
2022/05/15 13:01:50;;;;;;;;;;;;;;;;;;5054235;28;19917;-71
2022/05/15 13:04:16;;;;;;;;;;;;;;;;;;5055696;28;19945;-71
2022/05/15 13:06:46;;;;;;;;;;;;;;;;;;5074003;28;19924;-71
2022/05/15 13:09:12;;;;;;;;;;;;;;;;;;5054915;28;20599;-71
2022/05/15 13:11:38;;;;;;;;;;;;;;;;;;5055102;28;20011;-71
2022/05/15 13:14:04;;;;;;;;;;;;;;;;;;5055736;28;19917;-71
2022/05/15 13:16:31;;;;;;;;;;;;;;;;;;5055371;28;19916;-71
2022/05/15 13:18:57;;;;;;;;;;;;;;;;;;5056374;28;19916;-71
2022/05/15 13:21:23;;;;;;;;;;;;;;;;;;5074008;28;19920;-71
2022/05/15 13:23:49;;;;;;;;;;;;;;;;;;5034945;28;19928;-71
2022/05/15 13:26:15;;;;;;;;;;;;;;;;;;5054546;28;19982;-71
2022/05/15 13:28:41;;;;;;;;;;;;;;;;;;5058305;28;20007;-69
2022/05/15 13:31:11;;;;;;;;;;;;;;;;;;5057180;28;19940;-69
2022/05/15 13:33:37;;;;;;;;;;;;;;;;;;5057970;28;19921;-70
2022/05/15 13:36:03;;;;;;;;;;;;;;;;;;5058267;28;20409;-70
2022/05/15 13:38:30;;;;;;;;;;;;;;;;;;5056169;28;19920;-70
2022/05/15 13:43:40;;;;;;;;;;;;;;;;;;5057209;28;20303;-70
2022/05/15 13:46:06;;;;;;;;;;;;;;;;;;5055688;28;19924;-70
2022/05/15 13:48:32;;;;;;;;;;;;;;;;;;5055404;28;19948;-70
2022/05/15 13:50:58;;;;;;;;;;;;;;;;;;5056419;28;19924;-70
2022/05/15 13:53:24;;;;;;;;;;;;;;;;;;5055903;28;19932;-70
2022/05/15 13:55:54;;;;;;;;;;;;;;;;;;5055588;28;20604;-70
2022/05/15 13:58:20;;;;;;;;;;;;;;;;;;5054492;28;19916;-70
2022/05/15 14:00:46;;;;;;;;;;;;;;;;;;5053847;28;19923;-70
2022/05/15 14:03:12;;;;;;;;;;;;;;;;;;5037807;28;19921;-70
2022/05/15 14:05:38;;;;;;;;;;;;;;;;;;5054151;28;19974;-70
2022/05/15 14:08:04;;;;;;;;;;;;;;;;;;5053948;28;19917;-70
2022/05/15 14:10:30;;;;;;;;;;;;;;;;;;5054581;28;19939;-70
2022/05/15 14:12:56;;;;;;;;;;;;;;;;;;5054547;28;19917;-70
2022/05/15 14:15:21;;;;;;;;;;;;;;;;;;5055129;28;19942;-70
2022/05/15 14:17:47;;;;;;;;;;;;;;;;;;5037198;28;19920;-70
2022/05/15 14:20:13;;;;;;;;;;;;;;;;;;5055090;28;19959;-70
2022/05/15 14:22:39;;;;;;;;;;;;;;;;;;5055400;28;20018;-70
2022/05/15 14:25:05;;;;;;;;;;;;;;;;;;5074303;28;19924;-70
2022/05/15 14:27:31;;;;;;;;;;;;;;;;;;5054579;28;19920;-70
2022/05/15 14:29:57;;;;;;;;;;;;;;;;;;5036140;28;20390;-70
2022/05/15 14:32:24;;;;;;;;;;;;;;;;;;5037030;28;19917;-70
2022/05/15 14:34:50;;;;;;;;;;;;;;;;;;5054940;28;20319;-70
2022/05/15 14:37:16;;;;;;;;;;;;;;;;;;5052483;28;20279;-70
2022/05/15 14:39:42;;;;;;;;;;;;;;;;;;5054637;28;20351;-70
2022/05/15 14:42:08;;;;;;;;;;;;;;;;;;5054023;28;20003;-70
2022/05/15 14:44:34;;;;;;;;;;;;;;;;;;5053851;28;20016;-70
2022/05/15 14:47:00;;;;;;;;;;;;;;;;;;5036172;28;19917;-70
2022/05/15 14:49:26;;;;;;;;;;;;;;;;;;5052569;28;19917;-70
2022/05/15 14:51:52;;;;;;;;;;;;;;;;;;5052330;28;19916;-70
2022/05/15 14:54:20;;;;;;;;;;;;;;;;;;5052539;28;19917;-70
2022/05/15 14:56:46;;;;;;;;;;;;;;;;;;5053850;28;19923;-70
2022/05/15 14:59:12;;;;;;;;;;;;;;;;;;5051898;28;19916;-70
2022/05/15 15:01:39;;;;;;;;;;;;;;;;;;5053978;28;19925;-70
2022/05/15 15:04:05;;;;;;;;;;;;;;;;;;5052332;28;20329;-70
2022/05/15 15:06:31;;;;;;;;;;;;;;;;;;5053150;28;19966;-70
2022/05/15 15:08:57;;;;;;;;;;;;;;;;;;5052524;28;19916;-70
2022/05/15 15:11:23;;;;;;;;;;;;;;;;;;5053821;28;19995;-70
2022/05/15 15:13:50;;;;;;;;;;;;;;;;;;5035494;28;19927;-70
2022/05/15 15:16:16;;;;;;;;;;;;;;;;;;5035816;28;19916;-70
2022/05/15 15:18:41;;;;;;;;;;;;;;;;;;5054104;28;19944;-70
2022/05/15 15:21:07;;;;;;;;;;;;;;;;;;5052156;28;19940;-70
2022/05/15 15:23:34;;;;;;;;;;;;;;;;;;5053713;28;19921;-70
2022/05/15 15:26:00;;;;;;;;;;;;;;;;;;5043081;28;19917;-70
2022/05/15 15:28:26;;;;;;;;;;;;;;;;;;5039271;28;19978;-70
2022/05/15 15:30:52;;;;;;;;;;;;;;;;;;5074542;28;19920;-70
2022/05/15 15:33:18;;;;;;;;;;;;;;;;;;5074383;28;19969;-70
2022/05/15 15:35:44;;;;;;;;;;;;;;;;;;5074292;28;19916;-70
2022/05/15 15:38:16;;;;;;;;;;;;;;;;;;5056041;28;20589;-70
2022/05/15 15:40:42;;;;;;;;;;;;;;;;;;5074210;28;19916;-70
2022/05/15 15:43:08;;;;;;;;;;;;;;;;;;5073514;28;20007;-70
2022/05/15 15:45:34;;;;;;;;;;;;;;;;;;5074574;28;19916;-70
2022/05/15 15:48:00;;;;;;;;;;;;;;;;;;5039066;28;19926;-70
2022/05/15 15:50:26;;;;;;;;;;;;;;;;;;5073552;28;20017;-70
2022/05/15 15:52:51;;;;;;;;;;;;;;;;;;5056278;28;19920;-70
2022/05/15 15:55:17;;;;;;;;;;;;;;;;;;5074635;28;19920;-70
2022/05/15 15:57:43;;;;;;;;;;;;;;;;;;5038839;28;19955;-70
2022/05/15 16:00:10;;;;;;;;;;;;;;;;;;5039382;28;19978;-70
2022/05/15 16:02:36;;;;;;;;;;;;;;;;;;5055357;28;19999;-70
2022/05/15 16:05:03;;;;;;;;;;;;;;;;;;5072949;28;20339;-70
2022/05/15 16:07:29;;;;;;;;;;;;;;;;;;5055219;28;19922;-70
2022/05/15 16:09:55;;;;;;;;;;;;;;;;;;5055631;28;20002;-70
2022/05/15 16:12:21;;;;;;;;;;;;;;;;;;5073788;28;19943;-70
2022/05/15 16:14:48;;;;;;;;;;;;;;;;;;5055452;28;19924;-70
2022/05/15 16:17:14;;;;;;;;;;;;;;;;;;5038693;28;19916;-70
2022/05/15 16:19:40;;;;;;;;;;;;;;;;;;5054684;28;19920;-70
2022/05/15 16:22:07;;;;;;;;;;;;;;;;;;5055353;28;19959;-70
2022/05/15 16:24:35;;;;;;;;;;;;;;;;;;5073139;28;20287;-70
2022/05/15 16:27:03;;;;;;;;;;;;;;;;;;5038715;28;19920;-70
2022/05/15 16:29:29;;;;;;;;;;;;;;;;;;5035429;28;19923;-70
2022/05/15 16:31:55;;;;;;;;;;;;;;;;;;5052059;28;20283;-70
2022/05/15 16:34:21;;;;;;;;;;;;;;;;;;5052759;28;19921;-70
2022/05/15 16:36:48;;;;;;;;;;;;;;;;;;5053341;28;20047;-70
2022/05/15 16:39:13;;;;;;;;;;;;;;;;;;5053271;28;19917;-70
2022/05/15 16:41:40;;;;;;;;;;;;;;;;;;5052331;28;19917;-70
2022/05/15 16:44:06;;;;;;;;;;;;;;;;;;5053330;28;19928;-70
2022/05/15 16:46:32;;;;;;;;;;;;;;;;;;5052124;28;20062;-70
2022/05/15 16:48:58;;;;;;;;;;;;;;;;;;5052817;28;19986;-70
2022/05/15 16:51:24;;;;;;;;;;;;;;;;;;5052054;28;19916;-70
2022/05/15 16:53:50;;;;;;;;;;;;;;;;;;5036013;28;20012;-70
2022/05/15 16:56:16;;;;;;;;;;;;;;;;;;5052787;28;20371;-70
2022/05/15 16:58:42;;;;;;;;;;;;;;;;;;5052239;28;19917;-70
2022/05/15 17:01:08;;;;;;;;;;;;;;;;;;5056009;28;19924;-70